sensor_id;sensor_type;location;lat;lon;timestamp;P1;durP1;ratioP1;P2;durP2;ratioP2
72586;SDS011;60621;49.576;11.024;2023-05-07T00:00:45;6.28;;;3.85;;
72586;SDS011;60621;49.576;11.024;2023-05-07T00:01:47;6.75;;;3.75;;
72586;SDS011;60621;49.576;11.024;2023-05-07T00:02:49;6.53;;;4.00;;
72586;SDS011;60621;49.576;11.024;2023-05-07T00:03:50;7.45;;;3.70;;
72586;SDS011;60621;49.576;11.024;2023-05-07T00:04:52;6.05;;;3.85;;
72586;SDS011;60621;49.576;11.024;2023-05-07T00:05:54;6.45;;;4.00;;
72586;SDS011;60621;49.576;11.024;2023-05-07T00:06:56;6.47;;;3.67;;
72586;SDS011;60621;49.576;11.024;2023-05-07T00:07:57;7.18;;;3.92;;
72586;SDS011;60621;49.576;11.024;2023-05-07T00:09:00;6.85;;;4.07;;
72586;SDS011;60621;49.576;11.024;2023-05-07T00:10:02;6.35;;;3.58;;
72586;SDS011;60621;49.576;11.024;2023-05-07T00:12:07;6.93;;;3.75;;
72586;SDS011;60621;49.576;11.024;2023-05-07T00:13:08;6.78;;;3.55;;
72586;SDS011;60621;49.576;11.024;2023-05-07T00:14:10;6.28;;;3.65;;
72586;SDS011;60621;49.576;11.024;2023-05-07T00:15:12;5.63;;;3.55;;
72586;SDS011;60621;49.576;11.024;2023-05-07T00:16:14;5.68;;;3.33;;
72586;SDS011;60621;49.576;11.024;2023-05-07T00:17:16;6.30;;;3.60;;
72586;SDS011;60621;49.576;11.024;2023-05-07T00:18:17;6.00;;;3.70;;
72586;SDS011;60621;49.576;11.024;2023-05-07T00:19:22;6.72;;;3.65;;
72586;SDS011;60621;49.576;11.024;2023-05-07T00:20:23;7.15;;;3.70;;
72586;SDS011;60621;49.576;11.024;2023-05-07T00:21:25;5.32;;;3.40;;
72586;SDS011;60621;49.576;11.024;2023-05-07T00:22:28;6.65;;;3.92;;
72586;SDS011;60621;49.576;11.024;2023-05-07T00:23:31;7.32;;;3.58;;
72586;SDS011;60621;49.576;11.024;2023-05-07T00:24:32;8.52;;;3.75;;
72586;SDS011;60621;49.576;11.024;2023-05-07T00:25:34;6.35;;;3.65;;
72586;SDS011;60621;49.576;11.024;2023-05-07T00:26:36;6.35;;;3.58;;
72586;SDS011;60621;49.576;11.024;2023-05-07T00:27:37;6.03;;;3.42;;
72586;SDS011;60621;49.576;11.024;2023-05-07T00:28:39;5.45;;;3.40;;
72586;SDS011;60621;49.576;11.024;2023-05-07T00:29:44;5.35;;;3.40;;
72586;SDS011;60621;49.576;11.024;2023-05-07T00:30:46;5.55;;;3.47;;
72586;SDS011;60621;49.576;11.024;2023-05-07T00:31:48;6.47;;;3.53;;
72586;SDS011;60621;49.576;11.024;2023-05-07T00:32:51;6.00;;;3.28;;
72586;SDS011;60621;49.576;11.024;2023-05-07T00:33:52;6.30;;;3.63;;
72586;SDS011;60621;49.576;11.024;2023-05-07T00:34:54;5.78;;;3.80;;
72586;SDS011;60621;49.576;11.024;2023-05-07T00:35:55;6.47;;;3.72;;
72586;SDS011;60621;49.576;11.024;2023-05-07T00:36:57;6.35;;;3.58;;
72586;SDS011;60621;49.576;11.024;2023-05-07T00:37:59;6.88;;;3.80;;
72586;SDS011;60621;49.576;11.024;2023-05-07T00:39:01;5.28;;;3.08;;
72586;SDS011;60621;49.576;11.024;2023-05-07T00:40:04;6.22;;;3.67;;
72586;SDS011;60621;49.576;11.024;2023-05-07T00:41:08;6.05;;;3.03;;
72586;SDS011;60621;49.576;11.024;2023-05-07T00:42:10;7.35;;;3.40;;
72586;SDS011;60621;49.576;11.024;2023-05-07T00:43:11;5.95;;;3.38;;
72586;SDS011;60621;49.576;11.024;2023-05-07T00:44:13;6.07;;;3.20;;
72586;SDS011;60621;49.576;11.024;2023-05-07T00:45:16;6.50;;;3.30;;
72586;SDS011;60621;49.576;11.024;2023-05-07T00:46:19;6.43;;;3.40;;
72586;SDS011;60621;49.576;11.024;2023-05-07T00:47:22;5.60;;;3.60;;
72586;SDS011;60621;49.576;11.024;2023-05-07T00:48:23;6.03;;;3.40;;
72586;SDS011;60621;49.576;11.024;2023-05-07T00:49:29;6.05;;;3.45;;
72586;SDS011;60621;49.576;11.024;2023-05-07T00:50:38;5.72;;;3.58;;
72586;SDS011;60621;49.576;11.024;2023-05-07T00:51:40;5.13;;;3.20;;
72586;SDS011;60621;49.576;11.024;2023-05-07T00:52:41;5.65;;;3.40;;
72586;SDS011;60621;49.576;11.024;2023-05-07T00:53:44;6.95;;;3.38;;
72586;SDS011;60621;49.576;11.024;2023-05-07T00:54:47;7.55;;;3.90;;
72586;SDS011;60621;49.576;11.024;2023-05-07T00:55:49;7.10;;;3.33;;
72586;SDS011;60621;49.576;11.024;2023-05-07T00:56:51;6.32;;;3.42;;
72586;SDS011;60621;49.576;11.024;2023-05-07T00:57:53;5.72;;;3.45;;
72586;SDS011;60621;49.576;11.024;2023-05-07T00:58:54;5.07;;;3.10;;
72586;SDS011;60621;49.576;11.024;2023-05-07T00:59:57;7.32;;;3.40;;
72586;SDS011;60621;49.576;11.024;2023-05-07T01:00:59;5.57;;;3.25;;
72586;SDS011;60621;49.576;11.024;2023-05-07T01:02:00;5.78;;;3.08;;
72586;SDS011;60621;49.576;11.024;2023-05-07T01:03:02;5.60;;;3.33;;
72586;SDS011;60621;49.576;11.024;2023-05-07T01:04:05;5.50;;;3.40;;
72586;SDS011;60621;49.576;11.024;2023-05-07T01:05:07;8.07;;;3.85;;
72586;SDS011;60621;49.576;11.024;2023-05-07T01:06:12;4.82;;;3.03;;
72586;SDS011;60621;49.576;11.024;2023-05-07T01:07:18;5.85;;;3.42;;
72586;SDS011;60621;49.576;11.024;2023-05-07T01:08:20;5.50;;;3.13;;
72586;SDS011;60621;49.576;11.024;2023-05-07T01:09:26;6.88;;;3.40;;
72586;SDS011;60621;49.576;11.024;2023-05-07T01:10:29;6.70;;;3.30;;
72586;SDS011;60621;49.576;11.024;2023-05-07T01:11:34;6.05;;;2.90;;
72586;SDS011;60621;49.576;11.024;2023-05-07T01:12:37;5.63;;;3.38;;
72586;SDS011;60621;49.576;11.024;2023-05-07T01:13:41;6.03;;;3.70;;
72586;SDS011;60621;49.576;11.024;2023-05-07T01:14:43;5.22;;;3.13;;
72586;SDS011;60621;49.576;11.024;2023-05-07T01:15:44;5.25;;;3.20;;
72586;SDS011;60621;49.576;11.024;2023-05-07T01:16:47;5.20;;;2.80;;
72586;SDS011;60621;49.576;11.024;2023-05-07T01:17:49;5.43;;;3.28;;
72586;SDS011;60621;49.576;11.024;2023-05-07T01:18:51;6.68;;;3.42;;
72586;SDS011;60621;49.576;11.024;2023-05-07T01:19:52;8.35;;;3.53;;
72586;SDS011;60621;49.576;11.024;2023-05-07T01:20:54;6.25;;;3.50;;
72586;SDS011;60621;49.576;11.024;2023-05-07T01:22:03;5.82;;;3.38;;
72586;SDS011;60621;49.576;11.024;2023-05-07T01:23:09;6.55;;;3.20;;
72586;SDS011;60621;49.576;11.024;2023-05-07T01:24:12;5.85;;;3.38;;
72586;SDS011;60621;49.576;11.024;2023-05-07T01:25:14;5.72;;;3.10;;
72586;SDS011;60621;49.576;11.024;2023-05-07T01:26:17;5.03;;;3.00;;
72586;SDS011;60621;49.576;11.024;2023-05-07T01:27:21;5.93;;;3.30;;
72586;SDS011;60621;49.576;11.024;2023-05-07T01:28:22;5.25;;;3.03;;
72586;SDS011;60621;49.576;11.024;2023-05-07T01:29:24;5.13;;;3.20;;
72586;SDS011;60621;49.576;11.024;2023-05-07T01:30:25;5.80;;;3.15;;
72586;SDS011;60621;49.576;11.024;2023-05-07T01:31:27;5.30;;;3.40;;
72586;SDS011;60621;49.576;11.024;2023-05-07T01:32:35;7.47;;;3.40;;
72586;SDS011;60621;49.576;11.024;2023-05-07T01:33:41;5.72;;;3.22;;
72586;SDS011;60621;49.576;11.024;2023-05-07T01:34:46;5.68;;;3.05;;
72586;SDS011;60621;49.576;11.024;2023-05-07T01:35:51;5.28;;;3.15;;
72586;SDS011;60621;49.576;11.024;2023-05-07T01:36:54;5.80;;;3.47;;
72586;SDS011;60621;49.576;11.024;2023-05-07T01:37:59;5.53;;;3.28;;
72586;SDS011;60621;49.576;11.024;2023-05-07T01:39:02;6.97;;;2.92;;
72586;SDS011;60621;49.576;11.024;2023-05-07T01:40:03;5.20;;;3.13;;
72586;SDS011;60621;49.576;11.024;2023-05-07T01:41:06;5.43;;;3.13;;
72586;SDS011;60621;49.576;11.024;2023-05-07T01:42:08;5.50;;;2.92;;
72586;SDS011;60621;49.576;11.024;2023-05-07T01:43:09;5.55;;;3.03;;
72586;SDS011;60621;49.576;11.024;2023-05-07T01:44:12;5.05;;;2.92;;
72586;SDS011;60621;49.576;11.024;2023-05-07T01:45:14;5.97;;;3.00;;
72586;SDS011;60621;49.576;11.024;2023-05-07T01:46:16;5.75;;;3.20;;
72586;SDS011;60621;49.576;11.024;2023-05-07T01:48:21;4.88;;;2.88;;
72586;SDS011;60621;49.576;11.024;2023-05-07T01:49:24;5.30;;;2.85;;
72586;SDS011;60621;49.576;11.024;2023-05-07T01:50:26;6.18;;;3.15;;
72586;SDS011;60621;49.576;11.024;2023-05-07T01:51:28;6.38;;;3.00;;
72586;SDS011;60621;49.576;11.024;2023-05-07T01:52:31;5.15;;;3.05;;
72586;SDS011;60621;49.576;11.024;2023-05-07T01:53:36;5.05;;;2.72;;
72586;SDS011;60621;49.576;11.024;2023-05-07T01:54:38;5.65;;;3.05;;
72586;SDS011;60621;49.576;11.024;2023-05-07T01:55:39;5.00;;;3.10;;
72586;SDS011;60621;49.576;11.024;2023-05-07T01:56:41;5.30;;;3.17;;
72586;SDS011;60621;49.576;11.024;2023-05-07T01:57:43;5.03;;;3.15;;
72586;SDS011;60621;49.576;11.024;2023-05-07T01:58:45;5.78;;;3.20;;
72586;SDS011;60621;49.576;11.024;2023-05-07T01:59:47;4.45;;;2.88;;
72586;SDS011;60621;49.576;11.024;2023-05-07T02:00:49;6.22;;;3.30;;
72586;SDS011;60621;49.576;11.024;2023-05-07T02:01:50;5.15;;;3.15;;
72586;SDS011;60621;49.576;11.024;2023-05-07T02:02:53;5.47;;;3.13;;
72586;SDS011;60621;49.576;11.024;2023-05-07T02:03:58;5.20;;;3.00;;
72586;SDS011;60621;49.576;11.024;2023-05-07T02:05:00;4.85;;;2.92;;
72586;SDS011;60621;49.576;11.024;2023-05-07T02:06:03;5.55;;;3.30;;
72586;SDS011;60621;49.576;11.024;2023-05-07T02:07:04;5.22;;;3.30;;
72586;SDS011;60621;49.576;11.024;2023-05-07T02:08:08;5.78;;;3.30;;
72586;SDS011;60621;49.576;11.024;2023-05-07T02:09:10;5.70;;;3.60;;
72586;SDS011;60621;49.576;11.024;2023-05-07T02:10:18;7.03;;;3.40;;
72586;SDS011;60621;49.576;11.024;2023-05-07T02:11:21;5.97;;;3.20;;
72586;SDS011;60621;49.576;11.024;2023-05-07T02:12:23;6.05;;;3.40;;
72586;SDS011;60621;49.576;11.024;2023-05-07T02:13:26;5.97;;;3.35;;
72586;SDS011;60621;49.576;11.024;2023-05-07T02:14:30;6.55;;;3.45;;
72586;SDS011;60621;49.576;11.024;2023-05-07T02:15:32;5.57;;;3.13;;
72586;SDS011;60621;49.576;11.024;2023-05-07T02:16:34;5.10;;;3.28;;
72586;SDS011;60621;49.576;11.024;2023-05-07T02:17:38;8.13;;;3.58;;
72586;SDS011;60621;49.576;11.024;2023-05-07T02:18:59;5.03;;;3.05;;
72586;SDS011;60621;49.576;11.024;2023-05-07T02:20:01;6.18;;;3.17;;
72586;SDS011;60621;49.576;11.024;2023-05-07T02:21:04;5.35;;;3.38;;
72586;SDS011;60621;49.576;11.024;2023-05-07T02:22:06;5.75;;;3.13;;
72586;SDS011;60621;49.576;11.024;2023-05-07T02:23:08;5.53;;;2.90;;
72586;SDS011;60621;49.576;11.024;2023-05-07T02:24:10;5.88;;;3.50;;
72586;SDS011;60621;49.576;11.024;2023-05-07T02:25:11;5.43;;;3.40;;
72586;SDS011;60621;49.576;11.024;2023-05-07T02:26:13;5.03;;;3.10;;
72586;SDS011;60621;49.576;11.024;2023-05-07T02:27:15;5.53;;;3.40;;
72586;SDS011;60621;49.576;11.024;2023-05-07T02:28:16;5.18;;;3.28;;
72586;SDS011;60621;49.576;11.024;2023-05-07T02:29:18;5.75;;;3.67;;
72586;SDS011;60621;49.576;11.024;2023-05-07T02:30:19;5.65;;;3.05;;
72586;SDS011;60621;49.576;11.024;2023-05-07T02:31:22;5.95;;;3.72;;
72586;SDS011;60621;49.576;11.024;2023-05-07T02:32:24;5.93;;;3.72;;
72586;SDS011;60621;49.576;11.024;2023-05-07T02:33:25;5.82;;;3.25;;
72586;SDS011;60621;49.576;11.024;2023-05-07T02:34:27;5.45;;;3.50;;
72586;SDS011;60621;49.576;11.024;2023-05-07T02:35:29;6.03;;;3.60;;
72586;SDS011;60621;49.576;11.024;2023-05-07T02:36:30;5.70;;;3.40;;
72586;SDS011;60621;49.576;11.024;2023-05-07T02:37:32;6.65;;;3.55;;
72586;SDS011;60621;49.576;11.024;2023-05-07T02:38:33;5.32;;;3.20;;
72586;SDS011;60621;49.576;11.024;2023-05-07T02:39:35;5.45;;;3.50;;
72586;SDS011;60621;49.576;11.024;2023-05-07T02:40:38;5.43;;;3.25;;
72586;SDS011;60621;49.576;11.024;2023-05-07T02:41:40;5.57;;;3.40;;
72586;SDS011;60621;49.576;11.024;2023-05-07T02:42:45;5.82;;;3.63;;
72586;SDS011;60621;49.576;11.024;2023-05-07T02:43:46;5.70;;;3.75;;
72586;SDS011;60621;49.576;11.024;2023-05-07T02:44:48;6.38;;;3.33;;
72586;SDS011;60621;49.576;11.024;2023-05-07T02:45:49;6.00;;;3.42;;
72586;SDS011;60621;49.576;11.024;2023-05-07T02:47:01;5.50;;;3.28;;
72586;SDS011;60621;49.576;11.024;2023-05-07T02:48:03;5.28;;;2.88;;
72586;SDS011;60621;49.576;11.024;2023-05-07T02:49:06;5.57;;;3.50;;
72586;SDS011;60621;49.576;11.024;2023-05-07T02:50:08;8.48;;;3.60;;
72586;SDS011;60621;49.576;11.024;2023-05-07T02:51:10;6.07;;;3.95;;
72586;SDS011;60621;49.576;11.024;2023-05-07T02:52:11;5.32;;;3.30;;
72586;SDS011;60621;49.576;11.024;2023-05-07T02:53:13;5.60;;;3.70;;
72586;SDS011;60621;49.576;11.024;2023-05-07T02:54:14;5.78;;;3.50;;
72586;SDS011;60621;49.576;11.024;2023-05-07T02:55:16;4.90;;;3.10;;
72586;SDS011;60621;49.576;11.024;2023-05-07T02:56:19;6.63;;;3.55;;
72586;SDS011;60621;49.576;11.024;2023-05-07T02:57:22;5.63;;;3.65;;
72586;SDS011;60621;49.576;11.024;2023-05-07T02:58:23;6.32;;;3.80;;
72586;SDS011;60621;49.576;11.024;2023-05-07T02:59:25;6.85;;;3.70;;
72586;SDS011;60621;49.576;11.024;2023-05-07T03:00:27;6.50;;;3.95;;
72586;SDS011;60621;49.576;11.024;2023-05-07T03:01:28;6.07;;;3.70;;
72586;SDS011;60621;49.576;11.024;2023-05-07T03:02:30;6.35;;;4.00;;
72586;SDS011;60621;49.576;11.024;2023-05-07T03:03:32;6.88;;;3.90;;
72586;SDS011;60621;49.576;11.024;2023-05-07T03:04:33;7.30;;;3.85;;
72586;SDS011;60621;49.576;11.024;2023-05-07T03:05:35;5.38;;;3.53;;
72586;SDS011;60621;49.576;11.024;2023-05-07T03:06:37;5.90;;;3.58;;
72586;SDS011;60621;49.576;11.024;2023-05-07T03:07:38;6.57;;;4.18;;
72586;SDS011;60621;49.576;11.024;2023-05-07T03:08:40;6.72;;;3.90;;
72586;SDS011;60621;49.576;11.024;2023-05-07T03:09:41;6.22;;;3.58;;
72586;SDS011;60621;49.576;11.024;2023-05-07T03:10:45;5.60;;;3.72;;
72586;SDS011;60621;49.576;11.024;2023-05-07T03:11:47;7.97;;;3.58;;
72586;SDS011;60621;49.576;11.024;2023-05-07T03:12:48;6.10;;;3.88;;
72586;SDS011;60621;49.576;11.024;2023-05-07T03:13:50;5.90;;;3.83;;
72586;SDS011;60621;49.576;11.024;2023-05-07T03:14:51;6.22;;;3.90;;
72586;SDS011;60621;49.576;11.024;2023-05-07T03:15:53;6.95;;;3.63;;
72586;SDS011;60621;49.576;11.024;2023-05-07T03:16:55;6.15;;;3.65;;
72586;SDS011;60621;49.576;11.024;2023-05-07T03:17:56;6.97;;;3.92;;
72586;SDS011;60621;49.576;11.024;2023-05-07T03:18:58;6.85;;;4.05;;
72586;SDS011;60621;49.576;11.024;2023-05-07T03:19:59;6.70;;;4.00;;
72586;SDS011;60621;49.576;11.024;2023-05-07T03:21:01;6.22;;;3.78;;
72586;SDS011;60621;49.576;11.024;2023-05-07T03:22:03;7.40;;;3.63;;
72586;SDS011;60621;49.576;11.024;2023-05-07T03:23:04;6.78;;;3.88;;
72586;SDS011;60621;49.576;11.024;2023-05-07T03:24:06;5.70;;;3.63;;
72586;SDS011;60621;49.576;11.024;2023-05-07T03:25:08;7.15;;;3.85;;
72586;SDS011;60621;49.576;11.024;2023-05-07T03:26:10;7.45;;;4.10;;
72586;SDS011;60621;49.576;11.024;2023-05-07T03:27:11;6.47;;;4.07;;
72586;SDS011;60621;49.576;11.024;2023-05-07T03:28:13;6.65;;;3.45;;
72586;SDS011;60621;49.576;11.024;2023-05-07T03:29:14;6.28;;;3.83;;
72586;SDS011;60621;49.576;11.024;2023-05-07T03:30:16;7.13;;;4.18;;
72586;SDS011;60621;49.576;11.024;2023-05-07T03:31:17;6.45;;;4.20;;
72586;SDS011;60621;49.576;11.024;2023-05-07T03:32:19;8.18;;;4.55;;
72586;SDS011;60621;49.576;11.024;2023-05-07T03:33:21;7.55;;;4.40;;
72586;SDS011;60621;49.576;11.024;2023-05-07T03:34:23;6.15;;;4.07;;
72586;SDS011;60621;49.576;11.024;2023-05-07T03:35:25;6.22;;;4.05;;
72586;SDS011;60621;49.576;11.024;2023-05-07T03:36:26;8.23;;;4.22;;
72586;SDS011;60621;49.576;11.024;2023-05-07T03:37:28;6.15;;;4.13;;
72586;SDS011;60621;49.576;11.024;2023-05-07T03:38:30;6.43;;;4.03;;
72586;SDS011;60621;49.576;11.024;2023-05-07T03:39:31;6.00;;;3.85;;
72586;SDS011;60621;49.576;11.024;2023-05-07T03:40:33;7.93;;;4.32;;
72586;SDS011;60621;49.576;11.024;2023-05-07T03:41:34;6.55;;;4.10;;
72586;SDS011;60621;49.576;11.024;2023-05-07T03:42:36;6.05;;;3.97;;
72586;SDS011;60621;49.576;11.024;2023-05-07T03:43:38;6.63;;;4.13;;
72586;SDS011;60621;49.576;11.024;2023-05-07T03:44:39;6.75;;;4.20;;
72586;SDS011;60621;49.576;11.024;2023-05-07T03:45:41;7.40;;;4.30;;
72586;SDS011;60621;49.576;11.024;2023-05-07T03:46:43;6.80;;;4.32;;
72586;SDS011;60621;49.576;11.024;2023-05-07T03:47:45;7.30;;;4.60;;
72586;SDS011;60621;49.576;11.024;2023-05-07T03:48:46;6.60;;;4.40;;
72586;SDS011;60621;49.576;11.024;2023-05-07T03:49:47;6.78;;;4.60;;
72586;SDS011;60621;49.576;11.024;2023-05-07T03:50:50;7.43;;;4.40;;
72586;SDS011;60621;49.576;11.024;2023-05-07T03:51:52;7.03;;;4.13;;
72586;SDS011;60621;49.576;11.024;2023-05-07T03:52:53;6.95;;;4.22;;
72586;SDS011;60621;49.576;11.024;2023-05-07T03:53:55;7.05;;;4.05;;
72586;SDS011;60621;49.576;11.024;2023-05-07T03:55:59;7.05;;;3.83;;
72586;SDS011;60621;49.576;11.024;2023-05-07T03:57:01;6.25;;;3.95;;
72586;SDS011;60621;49.576;11.024;2023-05-07T03:58:03;7.57;;;4.80;;
72586;SDS011;60621;49.576;11.024;2023-05-07T03:59:04;6.38;;;4.00;;
72586;SDS011;60621;49.576;11.024;2023-05-07T04:00:06;6.63;;;4.25;;
72586;SDS011;60621;49.576;11.024;2023-05-07T04:01:08;7.90;;;4.60;;
72586;SDS011;60621;49.576;11.024;2023-05-07T04:02:10;7.32;;;4.65;;
72586;SDS011;60621;49.576;11.024;2023-05-07T04:03:11;6.95;;;4.90;;
72586;SDS011;60621;49.576;11.024;2023-05-07T04:04:13;6.97;;;4.38;;
72586;SDS011;60621;49.576;11.024;2023-05-07T04:05:15;8.13;;;4.93;;
72586;SDS011;60621;49.576;11.024;2023-05-07T04:06:17;7.32;;;4.65;;
72586;SDS011;60621;49.576;11.024;2023-05-07T04:07:19;7.80;;;4.63;;
72586;SDS011;60621;49.576;11.024;2023-05-07T04:08:20;7.13;;;4.55;;
72586;SDS011;60621;49.576;11.024;2023-05-07T04:09:22;7.13;;;4.65;;
72586;SDS011;60621;49.576;11.024;2023-05-07T04:10:23;7.80;;;4.60;;
72586;SDS011;60621;49.576;11.024;2023-05-07T04:11:25;7.90;;;5.07;;
72586;SDS011;60621;49.576;11.024;2023-05-07T04:12:26;7.38;;;5.15;;
72586;SDS011;60621;49.576;11.024;2023-05-07T04:13:29;8.82;;;4.85;;
72586;SDS011;60621;49.576;11.024;2023-05-07T04:14:31;7.63;;;4.72;;
72586;SDS011;60621;49.576;11.024;2023-05-07T04:15:33;7.82;;;4.95;;
72586;SDS011;60621;49.576;11.024;2023-05-07T04:16:35;8.15;;;5.10;;
72586;SDS011;60621;49.576;11.024;2023-05-07T04:17:37;7.25;;;4.72;;
72586;SDS011;60621;49.576;11.024;2023-05-07T04:18:38;8.10;;;5.13;;
72586;SDS011;60621;49.576;11.024;2023-05-07T04:19:40;8.27;;;5.32;;
72586;SDS011;60621;49.576;11.024;2023-05-07T04:20:46;8.50;;;4.90;;
72586;SDS011;60621;49.576;11.024;2023-05-07T04:21:48;8.63;;;5.35;;
72586;SDS011;60621;49.576;11.024;2023-05-07T04:22:49;7.82;;;5.40;;
72586;SDS011;60621;49.576;11.024;2023-05-07T04:23:51;6.60;;;4.72;;
72586;SDS011;60621;49.576;11.024;2023-05-07T04:24:53;7.78;;;5.55;;
72586;SDS011;60621;49.576;11.024;2023-05-07T04:25:54;7.70;;;5.25;;
72586;SDS011;60621;49.576;11.024;2023-05-07T04:26:56;7.75;;;5.07;;
72586;SDS011;60621;49.576;11.024;2023-05-07T04:27:59;8.00;;;5.07;;
72586;SDS011;60621;49.576;11.024;2023-05-07T04:29:01;7.35;;;5.05;;
72586;SDS011;60621;49.576;11.024;2023-05-07T04:30:02;8.77;;;4.55;;
72586;SDS011;60621;49.576;11.024;2023-05-07T04:31:04;7.32;;;5.28;;
72586;SDS011;60621;49.576;11.024;2023-05-07T04:32:06;7.53;;;5.25;;
72586;SDS011;60621;49.576;11.024;2023-05-07T04:33:08;8.48;;;5.47;;
72586;SDS011;60621;49.576;11.024;2023-05-07T04:34:10;7.05;;;5.03;;
72586;SDS011;60621;49.576;11.024;2023-05-07T04:35:12;8.60;;;5.53;;
72586;SDS011;60621;49.576;11.024;2023-05-07T04:36:13;7.18;;;5.05;;
72586;SDS011;60621;49.576;11.024;2023-05-07T04:37:15;8.77;;;5.57;;
72586;SDS011;60621;49.576;11.024;2023-05-07T04:38:17;7.43;;;5.35;;
72586;SDS011;60621;49.576;11.024;2023-05-07T04:39:19;7.70;;;5.10;;
72586;SDS011;60621;49.576;11.024;2023-05-07T04:40:20;8.45;;;5.47;;
72586;SDS011;60621;49.576;11.024;2023-05-07T04:41:22;8.73;;;5.55;;
72586;SDS011;60621;49.576;11.024;2023-05-07T04:42:23;8.27;;;5.38;;
72586;SDS011;60621;49.576;11.024;2023-05-07T04:43:25;8.55;;;5.25;;
72586;SDS011;60621;49.576;11.024;2023-05-07T04:44:27;7.90;;;5.40;;
72586;SDS011;60621;49.576;11.024;2023-05-07T04:45:28;7.30;;;4.75;;
72586;SDS011;60621;49.576;11.024;2023-05-07T04:46:30;7.32;;;5.13;;
72586;SDS011;60621;49.576;11.024;2023-05-07T04:47:32;7.05;;;4.97;;
72586;SDS011;60621;49.576;11.024;2023-05-07T04:48:33;7.35;;;5.30;;
72586;SDS011;60621;49.576;11.024;2023-05-07T04:49:35;7.10;;;4.68;;
72586;SDS011;60621;49.576;11.024;2023-05-07T04:50:36;8.75;;;5.03;;
72586;SDS011;60621;49.576;11.024;2023-05-07T04:51:38;7.80;;;5.22;;
72586;SDS011;60621;49.576;11.024;2023-05-07T04:52:40;8.00;;;5.35;;
72586;SDS011;60621;49.576;11.024;2023-05-07T04:53:41;7.78;;;4.88;;
72586;SDS011;60621;49.576;11.024;2023-05-07T04:54:44;8.10;;;4.93;;
72586;SDS011;60621;49.576;11.024;2023-05-07T04:55:45;7.93;;;5.10;;
72586;SDS011;60621;49.576;11.024;2023-05-07T04:56:47;7.55;;;5.32;;
72586;SDS011;60621;49.576;11.024;2023-05-07T04:57:48;7.32;;;5.18;;
72586;SDS011;60621;49.576;11.024;2023-05-07T04:58:50;8.02;;;5.30;;
72586;SDS011;60621;49.576;11.024;2023-05-07T04:59:52;8.82;;;5.25;;
72586;SDS011;60621;49.576;11.024;2023-05-07T05:00:54;7.22;;;4.63;;
72586;SDS011;60621;49.576;11.024;2023-05-07T05:01:55;7.57;;;5.20;;
72586;SDS011;60621;49.576;11.024;2023-05-07T05:02:57;6.88;;;4.72;;
72586;SDS011;60621;49.576;11.024;2023-05-07T05:03:59;7.53;;;5.15;;
72586;SDS011;60621;49.576;11.024;2023-05-07T05:05:01;7.90;;;5.38;;
72586;SDS011;60621;49.576;11.024;2023-05-07T05:06:03;7.40;;;4.68;;
72586;SDS011;60621;49.576;11.024;2023-05-07T05:07:05;7.97;;;4.78;;
72586;SDS011;60621;49.576;11.024;2023-05-07T05:08:07;9.25;;;5.38;;
72586;SDS011;60621;49.576;11.024;2023-05-07T05:09:08;9.23;;;4.93;;
72586;SDS011;60621;49.576;11.024;2023-05-07T05:10:10;7.93;;;5.20;;
72586;SDS011;60621;49.576;11.024;2023-05-07T05:11:12;9.32;;;5.82;;
72586;SDS011;60621;49.576;11.024;2023-05-07T05:12:13;8.80;;;5.93;;
72586;SDS011;60621;49.576;11.024;2023-05-07T05:13:15;9.52;;;5.95;;
72586;SDS011;60621;49.576;11.024;2023-05-07T05:14:17;9.13;;;5.85;;
72586;SDS011;60621;49.576;11.024;2023-05-07T05:15:18;8.80;;;6.18;;
72586;SDS011;60621;49.576;11.024;2023-05-07T05:16:20;8.95;;;5.97;;
72586;SDS011;60621;49.576;11.024;2023-05-07T05:17:22;9.40;;;6.03;;
72586;SDS011;60621;49.576;11.024;2023-05-07T05:18:23;9.00;;;6.18;;
72586;SDS011;60621;49.576;11.024;2023-05-07T05:19:25;8.55;;;5.85;;
72586;SDS011;60621;49.576;11.024;2023-05-07T05:20:27;9.27;;;5.90;;
72586;SDS011;60621;49.576;11.024;2023-05-07T05:21:28;9.88;;;5.82;;
72586;SDS011;60621;49.576;11.024;2023-05-07T05:22:30;8.40;;;6.03;;
72586;SDS011;60621;49.576;11.024;2023-05-07T05:23:32;9.68;;;6.15;;
72586;SDS011;60621;49.576;11.024;2023-05-07T05:24:34;8.90;;;5.82;;
72586;SDS011;60621;49.576;11.024;2023-05-07T05:25:35;9.02;;;6.07;;
72586;SDS011;60621;49.576;11.024;2023-05-07T05:26:38;10.50;;;6.35;;
72586;SDS011;60621;49.576;11.024;2023-05-07T05:27:40;10.52;;;6.28;;
72586;SDS011;60621;49.576;11.024;2023-05-07T05:28:41;9.93;;;6.63;;
72586;SDS011;60621;49.576;11.024;2023-05-07T05:29:43;10.43;;;6.47;;
72586;SDS011;60621;49.576;11.024;2023-05-07T05:30:44;9.52;;;6.10;;
72586;SDS011;60621;49.576;11.024;2023-05-07T05:31:46;9.73;;;5.85;;
72586;SDS011;60621;49.576;11.024;2023-05-07T05:32:48;8.38;;;5.95;;
72586;SDS011;60621;49.576;11.024;2023-05-07T05:33:49;9.25;;;6.03;;
72586;SDS011;60621;49.576;11.024;2023-05-07T05:34:51;9.77;;;6.15;;
72586;SDS011;60621;49.576;11.024;2023-05-07T05:35:55;8.63;;;6.07;;
72586;SDS011;60621;49.576;11.024;2023-05-07T05:36:57;8.43;;;5.65;;
72586;SDS011;60621;49.576;11.024;2023-05-07T05:38:00;7.85;;;4.90;;
72586;SDS011;60621;49.576;11.024;2023-05-07T05:39:01;8.90;;;6.05;;
72586;SDS011;60621;49.576;11.024;2023-05-07T05:40:03;8.25;;;5.72;;
72586;SDS011;60621;49.576;11.024;2023-05-07T05:41:05;8.25;;;5.65;;
72586;SDS011;60621;49.576;11.024;2023-05-07T05:42:06;9.50;;;5.70;;
72586;SDS011;60621;49.576;11.024;2023-05-07T05:43:08;8.48;;;5.60;;
72586;SDS011;60621;49.576;11.024;2023-05-07T05:44:09;8.95;;;6.03;;
72586;SDS011;60621;49.576;11.024;2023-05-07T05:45:11;8.75;;;6.00;;
72586;SDS011;60621;49.576;11.024;2023-05-07T05:46:13;8.38;;;5.90;;
72586;SDS011;60621;49.576;11.024;2023-05-07T05:47:14;8.98;;;5.82;;
72586;SDS011;60621;49.576;11.024;2023-05-07T05:48:16;8.48;;;5.97;;
72586;SDS011;60621;49.576;11.024;2023-05-07T05:49:17;9.32;;;6.20;;
72586;SDS011;60621;49.576;11.024;2023-05-07T05:50:19;11.57;;;6.05;;
72586;SDS011;60621;49.576;11.024;2023-05-07T05:51:21;9.10;;;6.28;;
72586;SDS011;60621;49.576;11.024;2023-05-07T05:52:22;8.95;;;5.80;;
72586;SDS011;60621;49.576;11.024;2023-05-07T05:53:27;8.40;;;5.72;;
72586;SDS011;60621;49.576;11.024;2023-05-07T05:54:28;9.95;;;6.00;;
72586;SDS011;60621;49.576;11.024;2023-05-07T05:55:30;8.73;;;6.25;;
72586;SDS011;60621;49.576;11.024;2023-05-07T05:56:33;8.88;;;6.03;;
72586;SDS011;60621;49.576;11.024;2023-05-07T05:57:35;9.35;;;6.70;;
72586;SDS011;60621;49.576;11.024;2023-05-07T05:58:37;9.25;;;5.85;;
72586;SDS011;60621;49.576;11.024;2023-05-07T05:59:38;9.65;;;6.13;;
72586;SDS011;60621;49.576;11.024;2023-05-07T06:00:40;9.57;;;6.53;;
72586;SDS011;60621;49.576;11.024;2023-05-07T06:01:41;8.27;;;5.63;;
72586;SDS011;60621;49.576;11.024;2023-05-07T06:02:43;8.88;;;5.55;;
72586;SDS011;60621;49.576;11.024;2023-05-07T06:03:45;8.90;;;5.38;;
72586;SDS011;60621;49.576;11.024;2023-05-07T06:04:46;8.45;;;5.95;;
72586;SDS011;60621;49.576;11.024;2023-05-07T06:05:48;9.73;;;6.25;;
72586;SDS011;60621;49.576;11.024;2023-05-07T06:06:49;8.18;;;6.00;;
72586;SDS011;60621;49.576;11.024;2023-05-07T06:07:51;9.80;;;6.50;;
72586;SDS011;60621;49.576;11.024;2023-05-07T06:08:53;9.77;;;6.25;;
72586;SDS011;60621;49.576;11.024;2023-05-07T06:09:54;8.68;;;5.93;;
72586;SDS011;60621;49.576;11.024;2023-05-07T06:10:56;9.90;;;6.25;;
72586;SDS011;60621;49.576;11.024;2023-05-07T06:11:58;8.38;;;5.88;;